sensor_id;sensor_type;location;lat;lon;timestamp;pressure;altitude;pressure_sealevel;temperature;humidity
18784;BME280;9520;50.954;6.968;2023-04-03T00:00:18;102288.47;;;12.37;39.53
18784;BME280;9520;50.954;6.968;2023-04-03T00:00:40;102292.00;;;12.38;39.69
18784;BME280;9520;50.954;6.968;2023-04-03T00:01:02;102299.91;;;12.39;39.62
18784;BME280;9520;50.954;6.968;2023-04-03T00:01:24;102284.03;;;12.39;39.74
18784;BME280;9520;50.954;6.968;2023-04-03T00:01:47;102292.88;;;12.40;39.50
18784;BME280;9520;50.954;6.968;2023-04-03T00:02:09;102289.34;;;12.38;39.52
18784;BME280;9520;50.954;6.968;2023-04-03T00:02:31;102291.09;;;12.39;39.54
18784;BME280;9520;50.954;6.968;2023-04-03T00:02:53;102284.03;;;12.39;39.53
18784;BME280;9520;50.954;6.968;2023-04-03T00:03:16;102281.41;;;12.38;39.70
18784;BME280;9520;50.954;6.968;2023-04-03T00:03:38;102287.56;;;12.40;39.46
18784;BME280;9520;50.954;6.968;2023-04-03T00:04:00;102281.38;;;12.39;39.40
18784;BME280;9520;50.954;6.968;2023-04-03T00:04:23;102278.75;;;12.36;39.38
18784;BME280;9520;50.954;6.968;2023-04-03T00:04:45;102273.44;;;12.32;39.29
18784;BME280;9520;50.954;6.968;2023-04-03T00:05:07;102278.75;;;12.38;39.61
18784;BME280;9520;50.954;6.968;2023-04-03T00:05:29;102284.94;;;12.40;39.65
18784;BME280;9520;50.954;6.968;2023-04-03T00:05:51;102286.69;;;12.38;39.53
18784;BME280;9520;50.954;6.968;2023-04-03T00:06:14;102283.16;;;12.36;39.85
18784;BME280;9520;50.954;6.968;2023-04-03T00:06:36;102285.81;;;12.36;39.71
18784;BME280;9520;50.954;6.968;2023-04-03T00:06:57;102288.47;;;12.37;40.03
18784;BME280;9520;50.954;6.968;2023-04-03T00:07:19;102288.44;;;12.34;39.74
18784;BME280;9520;50.954;6.968;2023-04-03T00:07:42;102272.53;;;12.25;39.31
18784;BME280;9520;50.954;6.968;2023-04-03T00:08:04;102231.03;;;12.03;39.18
18784;BME280;9520;50.954;6.968;2023-04-03T00:08:29;102278.69;;;12.29;39.26
18784;BME280;9520;50.954;6.968;2023-04-03T00:08:52;102283.16;;;12.33;39.42
18784;BME280;9520;50.954;6.968;2023-04-03T00:09:15;102286.66;;;12.32;39.54
18784;BME280;9520;50.954;6.968;2023-04-03T00:09:37;102281.34;;;12.29;39.82
18784;BME280;9520;50.954;6.968;2023-04-03T00:09:58;102286.69;;;12.33;39.85
18784;BME280;9520;50.954;6.968;2023-04-03T00:10:21;102281.38;;;12.32;39.84
18784;BME280;9520;50.954;6.968;2023-04-03T00:10:44;102290.19;;;12.28;39.90
18784;BME280;9520;50.954;6.968;2023-04-03T00:11:06;102290.16;;;12.26;40.14
18784;BME280;9520;50.954;6.968;2023-04-03T00:11:30;102285.78;;;12.27;40.44
18784;BME280;9520;50.954;6.968;2023-04-03T00:11:52;102287.53;;;12.29;40.23
18784;BME280;9520;50.954;6.968;2023-04-03T00:12:15;102280.47;;;12.30;39.94
18784;BME280;9520;50.954;6.968;2023-04-03T00:12:36;102283.13;;;12.27;39.83
18784;BME280;9520;50.954;6.968;2023-04-03T00:12:58;102253.06;;;12.09;39.80
18784;BME280;9520;50.954;6.968;2023-04-03T00:13:20;102281.34;;;12.29;39.78
18784;BME280;9520;50.954;6.968;2023-04-03T00:13:43;102282.25;;;12.26;40.14
18784;BME280;9520;50.954;6.968;2023-04-03T00:14:05;102283.09;;;12.24;40.13
18784;BME280;9520;50.954;6.968;2023-04-03T00:14:27;102245.97;;;11.99;39.83
18784;BME280;9520;50.954;6.968;2023-04-03T00:14:49;102281.34;;;12.24;39.90
18784;BME280;9520;50.954;6.968;2023-04-03T00:15:50;102285.78;;;12.27;39.72
18784;BME280;9520;50.954;6.968;2023-04-03T00:16:12;102293.72;;;12.28;39.52
18784;BME280;9520;50.954;6.968;2023-04-03T00:16:35;102271.59;;;12.19;39.73
18784;BME280;9520;50.954;6.968;2023-04-03T00:16:57;102287.50;;;12.25;40.28
18784;BME280;9520;50.954;6.968;2023-04-03T00:17:18;102283.13;;;12.28;40.30
18784;BME280;9520;50.954;6.968;2023-04-03T00:17:41;102282.22;;;12.25;40.32
18784;BME280;9520;50.954;6.968;2023-04-03T00:18:03;102287.53;;;12.31;40.32
18784;BME280;9520;50.954;6.968;2023-04-03T00:18:26;102288.41;;;12.30;40.55
18784;BME280;9520;50.954;6.968;2023-04-03T00:18:47;102293.69;;;12.30;40.34
18784;BME280;9520;50.954;6.968;2023-04-03T00:19:09;102295.47;;;12.31;40.59
18784;BME280;9520;50.954;6.968;2023-04-03T00:19:33;102289.28;;;12.26;40.06
18784;BME280;9520;50.954;6.968;2023-04-03T00:19:56;102290.16;;;12.26;40.27
18784;BME280;9520;50.954;6.968;2023-04-03T00:20:18;102283.97;;;12.21;40.17
18784;BME280;9520;50.954;6.968;2023-04-03T00:20:39;102294.59;;;12.27;40.37
18784;BME280;9520;50.954;6.968;2023-04-03T00:21:01;102297.22;;;12.26;40.28
18784;BME280;9520;50.954;6.968;2023-04-03T00:21:24;102275.13;;;12.16;40.37
18784;BME280;9520;50.954;6.968;2023-04-03T00:21:46;102284.00;;;12.26;40.52
18784;BME280;9520;50.954;6.968;2023-04-03T00:22:09;102285.78;;;12.27;40.38
18784;BME280;9520;50.954;6.968;2023-04-03T00:22:31;102287.53;;;12.28;40.31
18784;BME280;9520;50.954;6.968;2023-04-03T00:22:54;102291.03;;;12.25;40.26
18784;BME280;9520;50.954;6.968;2023-04-03T00:23:16;102289.28;;;12.26;40.36
18784;BME280;9520;50.954;6.968;2023-04-03T00:23:39;102291.91;;;12.21;40.34
18784;BME280;9520;50.954;6.968;2023-04-03T00:24:02;102280.44;;;12.24;40.11
18784;BME280;9520;50.954;6.968;2023-04-03T00:24:24;102280.47;;;12.22;39.92
18784;BME280;9520;50.954;6.968;2023-04-03T00:24:46;102287.50;;;12.22;40.16
18784;BME280;9520;50.954;6.968;2023-04-03T00:25:08;102283.97;;;12.20;40.28
18784;BME280;9520;50.954;6.968;2023-04-03T00:25:30;102286.63;;;12.18;40.40
18784;BME280;9520;50.954;6.968;2023-04-03T00:25:53;102288.41;;;12.22;40.45
18784;BME280;9520;50.954;6.968;2023-04-03T00:26:14;102283.97;;;12.21;40.24
18784;BME280;9520;50.954;6.968;2023-04-03T00:26:37;102277.81;;;12.18;40.30
18784;BME280;9520;50.954;6.968;2023-04-03T00:26:59;102288.41;;;12.22;40.13
18784;BME280;9520;50.954;6.968;2023-04-03T00:27:21;102285.72;;;12.19;39.94
18784;BME280;9520;50.954;6.968;2023-04-03T00:27:44;102282.19;;;12.19;39.96
18784;BME280;9520;50.954;6.968;2023-04-03T00:28:06;102274.25;;;12.11;39.73
18784;BME280;9520;50.954;6.968;2023-04-03T00:28:28;102283.09;;;12.18;39.75
18784;BME280;9520;50.954;6.968;2023-04-03T00:28:50;102284.84;;;12.16;39.90
18784;BME280;9520;50.954;6.968;2023-04-03T00:29:12;102283.94;;;12.15;40.03
18784;BME280;9520;50.954;6.968;2023-04-03T00:29:33;102284.81;;;12.14;40.35
18784;BME280;9520;50.954;6.968;2023-04-03T00:29:57;102287.47;;;12.16;40.40
18784;BME280;9520;50.954;6.968;2023-04-03T00:30:20;102284.81;;;12.11;40.13
18784;BME280;9520;50.954;6.968;2023-04-03T00:30:42;102285.66;;;12.05;39.90
18784;BME280;9520;50.954;6.968;2023-04-03T00:31:05;102265.31;;;11.91;39.91
18784;BME280;9520;50.954;6.968;2023-04-03T00:31:28;102298.03;;;12.03;39.92
18784;BME280;9520;50.954;6.968;2023-04-03T00:31:49;102278.59;;;11.98;39.92
18784;BME280;9520;50.954;6.968;2023-04-03T00:32:11;102291.84;;;12.03;40.10
18784;BME280;9520;50.954;6.968;2023-04-03T00:32:33;102290.97;;;12.02;40.32
18784;BME280;9520;50.954;6.968;2023-04-03T00:32:56;102290.06;;;12.02;40.44
18784;BME280;9520;50.954;6.968;2023-04-03T00:33:18;102290.06;;;11.97;40.50
18784;BME280;9520;50.954;6.968;2023-04-03T00:33:43;102254.72;;;11.79;40.60
18784;BME280;9520;50.954;6.968;2023-04-03T00:34:06;102293.59;;;11.98;40.24
18784;BME280;9520;50.954;6.968;2023-04-03T00:34:28;102293.56;;;11.99;40.23
18784;BME280;9520;50.954;6.968;2023-04-03T00:34:49;102287.38;;;11.99;40.29
18784;BME280;9520;50.954;6.968;2023-04-03T00:35:11;102295.34;;;12.00;40.32
18784;BME280;9520;50.954;6.968;2023-04-03T00:35:37;102281.22;;;11.95;40.48
18784;BME280;9520;50.954;6.968;2023-04-03T00:35:59;102290.94;;;11.98;40.31
18784;BME280;9520;50.954;6.968;2023-04-03T00:36:26;102290.91;;;11.96;40.17
18784;BME280;9520;50.954;6.968;2023-04-03T00:36:48;102280.31;;;11.95;39.95
18784;BME280;9520;50.954;6.968;2023-04-03T00:37:12;102295.31;;;11.96;39.99
18784;BME280;9520;50.954;6.968;2023-04-03T00:37:36;102282.09;;;11.93;39.90
18784;BME280;9520;50.954;6.968;2023-04-03T00:37:57;102290.91;;;11.93;40.04
18784;BME280;9520;50.954;6.968;2023-04-03T00:38:19;102283.84;;;11.92;39.99
18784;BME280;9520;50.954;6.968;2023-04-03T00:38:42;102282.97;;;11.89;40.33
18784;BME280;9520;50.954;6.968;2023-04-03T00:39:03;102289.13;;;11.92;40.47
18784;BME280;9520;50.954;6.968;2023-04-03T00:39:26;102282.94;;;11.90;40.40
18784;BME280;9520;50.954;6.968;2023-04-03T00:39:47;102294.38;;;11.86;39.99
18784;BME280;9520;50.954;6.968;2023-04-03T00:40:10;102281.13;;;11.80;40.04
18784;BME280;9520;50.954;6.968;2023-04-03T00:40:35;102283.78;;;11.80;40.08
18784;BME280;9520;50.954;6.968;2023-04-03T00:40:57;102289.06;;;11.77;40.01
18784;BME280;9520;50.954;6.968;2023-04-03T00:41:19;102292.53;;;11.75;39.99
18784;BME280;9520;50.954;6.968;2023-04-03T00:41:42;102287.28;;;11.73;40.10
18784;BME280;9520;50.954;6.968;2023-04-03T00:42:04;102285.53;;;11.74;40.09
18784;BME280;9520;50.954;6.968;2023-04-03T00:42:26;102286.34;;;11.71;40.24
18784;BME280;9520;50.954;6.968;2023-04-03T00:42:50;102284.56;;;11.72;40.09
18784;BME280;9520;50.954;6.968;2023-04-03T00:43:14;102292.50;;;11.72;40.21
18784;BME280;9520;50.954;6.968;2023-04-03T00:43:37;102283.75;;;11.73;40.15
18784;BME280;9520;50.954;6.968;2023-04-03T00:44:21;102271.28;;;11.61;39.94
18784;BME280;9520;50.954;6.968;2023-04-03T00:45:43;102281.91;;;11.70;40.67
18784;BME280;9520;50.954;6.968;2023-04-03T00:46:08;102263.34;;;11.56;40.51
18784;BME280;9520;50.954;6.968;2023-04-03T00:46:32;102290.75;;;11.69;40.57
18784;BME280;9520;50.954;6.968;2023-04-03T00:46:54;102261.56;;;11.54;40.40
18784;BME280;9520;50.954;6.968;2023-04-03T00:47:17;102293.38;;;11.69;40.35
18784;BME280;9520;50.954;6.968;2023-04-03T00:47:40;102258.03;;;11.49;40.25
18784;BME280;9520;50.954;6.968;2023-04-03T00:48:05;102277.47;;;11.58;40.69
18784;BME280;9520;50.954;6.968;2023-04-03T00:48:30;102288.03;;;11.61;40.67
18784;BME280;9520;50.954;6.968;2023-04-03T00:48:53;102290.66;;;11.60;40.51
18784;BME280;9520;50.954;6.968;2023-04-03T00:49:16;102284.50;;;11.61;40.35
18784;BME280;9520;50.954;6.968;2023-04-03T00:49:38;102288.06;;;11.63;40.54
18784;BME280;9520;50.954;6.968;2023-04-03T00:50:01;102287.16;;;11.61;40.63
18784;BME280;9520;50.954;6.968;2023-04-03T00:50:23;102288.06;;;11.63;40.86
18784;BME280;9520;50.954;6.968;2023-04-03T00:50:46;102270.38;;;11.54;41.20
18784;BME280;9520;50.954;6.968;2023-04-03T00:51:11;102289.81;;;11.65;40.92
18784;BME280;9520;50.954;6.968;2023-04-03T00:51:34;102285.41;;;11.66;40.66
18784;BME280;9520;50.954;6.968;2023-04-03T00:51:57;102281.81;;;11.52;40.30
18784;BME280;9520;50.954;6.968;2023-04-03T00:52:22;102273.91;;;11.53;40.41
18784;BME280;9520;50.954;6.968;2023-04-03T00:52:46;102279.22;;;11.61;40.32
18784;BME280;9520;50.954;6.968;2023-04-03T00:53:12;102277.41;;;11.52;40.28
18784;BME280;9520;50.954;6.968;2023-04-03T00:53:39;102285.41;;;11.64;40.12
18784;BME280;9520;50.954;6.968;2023-04-03T00:54:04;102274.81;;;11.60;40.16
18784;BME280;9520;50.954;6.968;2023-04-03T00:54:26;102276.50;;;11.50;40.18
18784;BME280;9520;50.954;6.968;2023-04-03T00:54:50;102285.38;;;11.57;40.41
18784;BME280;9520;50.954;6.968;2023-04-03T00:55:13;102288.91;;;11.59;40.44
18784;BME280;9520;50.954;6.968;2023-04-03T00:55:36;102276.56;;;11.61;40.54
18784;BME280;9520;50.954;6.968;2023-04-03T00:56:00;102281.00;;;11.62;40.68
18784;BME280;9520;50.954;6.968;2023-04-03T00:56:25;102278.34;;;11.65;40.77
18784;BME280;9520;50.954;6.968;2023-04-03T00:56:49;102278.38;;;11.66;40.39
18784;BME280;9520;50.954;6.968;2023-04-03T00:57:13;102280.16;;;11.67;40.02
18784;BME280;9520;50.954;6.968;2023-04-03T00:57:37;102274.81;;;11.64;40.15
18784;BME280;9520;50.954;6.968;2023-04-03T00:58:00;102287.16;;;11.65;40.30
18784;BME280;9520;50.954;6.968;2023-04-03T00:58:28;102277.50;;;11.66;40.04
18784;BME280;9520;50.954;6.968;2023-04-03T00:58:57;102273.09;;;11.66;40.27
18784;BME280;9520;50.954;6.968;2023-04-03T00:59:23;102281.00;;;11.65;40.29
18784;BME280;9520;50.954;6.968;2023-04-03T00:59:52;102277.47;;;11.63;40.23
18784;BME280;9520;50.954;6.968;2023-04-03T01:00:17;102281.03;;;11.66;40.24
18784;BME280;9520;50.954;6.968;2023-04-03T01:00:46;102270.44;;;11.65;40.24
18784;BME280;9520;50.954;6.968;2023-04-03T01:01:14;102283.66;;;11.66;40.20
18784;BME280;9520;50.954;6.968;2023-04-03T01:01:37;102277.50;;;11.66;40.04
18784;BME280;9520;50.954;6.968;2023-04-03T01:02:01;102274.84;;;11.63;39.74
18784;BME280;9520;50.954;6.968;2023-04-03T01:02:23;102284.53;;;11.65;39.72
18784;BME280;9520;50.954;6.968;2023-04-03T01:02:46;102274.88;;;11.67;39.77
18784;BME280;9520;50.954;6.968;2023-04-03T01:03:09;102282.81;;;11.69;39.69
18784;BME280;9520;50.954;6.968;2023-04-03T01:03:32;102280.19;;;11.69;39.91
18784;BME280;9520;50.954;6.968;2023-04-03T01:03:58;102258.94;;;11.57;39.77
18784;BME280;9520;50.954;6.968;2023-04-03T01:04:27;102276.66;;;11.68;39.86
18784;BME280;9520;50.954;6.968;2023-04-03T01:04:49;102277.47;;;11.64;39.92
18784;BME280;9520;50.954;6.968;2023-04-03T01:05:11;102273.97;;;11.67;39.84
18784;BME280;9520;50.954;6.968;2023-04-03T01:05:34;102281.03;;;11.71;39.69
18784;BME280;9520;50.954;6.968;2023-04-03T01:05:57;102273.97;;;11.65;39.72
18784;BME280;9520;50.954;6.968;2023-04-03T01:06:21;102264.28;;;11.63;39.92
18784;BME280;9520;50.954;6.968;2023-04-03T01:06:46;102276.66;;;11.68;39.86
18784;BME280;9520;50.954;6.968;2023-04-03T01:07:10;102273.09;;;11.66;39.78
18784;BME280;9520;50.954;6.968;2023-04-03T01:07:33;102277.53;;;11.72;39.70
18784;BME280;9520;50.954;6.968;2023-04-03T01:07:56;102269.56;;;11.66;39.74
18784;BME280;9520;50.954;6.968;2023-04-03T01:08:19;102287.28;;;11.73;39.96
18784;BME280;9520;50.954;6.968;2023-04-03T01:08:41;102257.19;;;11.59;40.03
18784;BME280;9520;50.954;6.968;2023-04-03T01:09:04;102278.41;;;11.71;40.17
18784;BME280;9520;50.954;6.968;2023-04-03T01:09:26;102282.78;;;11.66;39.96
18784;BME280;9520;50.954;6.968;2023-04-03T01:09:51;102261.56;;;11.54;39.76
18784;BME280;9520;50.954;6.968;2023-04-03T01:10:15;102282.78;;;11.67;39.50
18784;BME280;9520;50.954;6.968;2023-04-03T01:10:37;102281.03;;;11.69;39.65
18784;BME280;9520;50.954;6.968;2023-04-03T01:11:00;102273.94;;;11.61;39.41
18784;BME280;9520;50.954;6.968;2023-04-03T01:11:22;102267.75;;;11.57;39.71
18784;BME280;9520;50.954;6.968;2023-04-03T01:11:44;102262.50;;;11.59;39.58
18784;BME280;9520;50.954;6.968;2023-04-03T01:12:13;102270.47;;;11.68;39.59
18784;BME280;9520;50.954;6.968;2023-04-03T01:12:39;102242.16;;;11.49;40.11
18784;BME280;9520;50.954;6.968;2023-04-03T01:13:19;102282.00;;;11.73;39.95
18784;BME280;9520;50.954;6.968;2023-04-03T01:13:42;102275.81;;;11.73;40.01
18784;BME280;9520;50.954;6.968;2023-04-03T01:14:04;102263.41;;;11.67;40.25
18784;BME280;9520;50.954;6.968;2023-04-03T01:14:27;102278.41;;;11.68;39.98
18784;BME280;9520;50.954;6.968;2023-04-03T01:14:53;102277.50;;;11.70;40.00
18784;BME280;9520;50.954;6.968;2023-04-03T01:15:18;102284.63;;;11.73;40.05
18784;BME280;9520;50.954;6.968;2023-04-03T01:15:40;102279.34;;;11.73;39.66
18784;BME280;9520;50.954;6.968;2023-04-03T01:16:04;102280.22;;;11.74;39.62
18784;BME280;9520;50.954;6.968;2023-04-03T01:16:28;102278.47;;;11.74;39.61
18784;BME280;9520;50.954;6.968;2023-04-03T01:16:53;102276.69;;;11.73;39.85
18784;BME280;9520;50.954;6.968;2023-04-03T01:17:27;102273.19;;;11.77;39.92
18784;BME280;9520;50.954;6.968;2023-04-03T01:17:51;102271.44;;;11.78;39.94
18784;BME280;9520;50.954;6.968;2023-04-03T01:18:14;102277.63;;;11.78;39.95
18784;BME280;9520;50.954;6.968;2023-04-03T01:18:38;102265.25;;;11.74;39.81
18784;BME280;9520;50.954;6.968;2023-04-03T01:19:03;102274.09;;;11.82;39.95
18784;BME280;9520;50.954;6.968;2023-04-03T01:19:26;102273.19;;;11.80;39.94
18784;BME280;9520;50.954;6.968;2023-04-03T01:19:55;102283.78;;;11.82;39.95
18784;BME280;9520;50.954;6.968;2023-04-03T01:20:44;102270.59;;;11.83;40.02
18784;BME280;9520;50.954;6.968;2023-04-03T01:21:43;102273.22;;;11.83;39.74
18784;BME280;9520;50.954;6.968;2023-04-03T01:22:18;102271.50;;;11.88;39.58
18784;BME280;9520;50.954;6.968;2023-04-03T01:22:45;102260.00;;;11.82;39.74
18784;BME280;9520;50.954;6.968;2023-04-03T01:23:24;102272.34;;;11.84;39.59
18784;BME280;9520;50.954;6.968;2023-04-03T01:23:54;102273.25;;;11.86;39.95
18784;BME280;9520;50.954;6.968;2023-04-03T01:24:30;102254.69;;;11.74;39.78
18784;BME280;9520;50.954;6.968;2023-04-03T01:24:54;102274.16;;;11.88;39.79
18784;BME280;9520;50.954;6.968;2023-04-03T01:25:15;102263.53;;;11.84;39.51
18784;BME280;9520;50.954;6.968;2023-04-03T01:25:40;102273.22;;;11.83;38.98
18784;BME280;9520;50.954;6.968;2023-04-03T01:26:03;102274.13;;;11.87;38.93
18784;BME280;9520;50.954;6.968;2023-04-03T01:26:25;102276.78;;;11.90;38.77
18784;BME280;9520;50.954;6.968;2023-04-03T01:26:48;102275.91;;;11.91;38.87
18784;BME280;9520;50.954;6.968;2023-04-03T01:27:10;102274.13;;;11.90;39.18
18784;BME280;9520;50.954;6.968;2023-04-03T01:27:33;102271.50;;;11.88;39.30
18784;BME280;9520;50.954;6.968;2023-04-03T01:27:55;102275.91;;;11.88;39.43
18784;BME280;9520;50.954;6.968;2023-04-03T01:28:19;102273.25;;;11.88;39.66
18784;BME280;9520;50.954;6.968;2023-04-03T01:28:41;102275.91;;;11.88;39.69
18784;BME280;9520;50.954;6.968;2023-04-03T01:29:04;102275.00;;;11.87;39.46
18784;BME280;9520;50.954;6.968;2023-04-03T01:29:26;102279.44;;;11.88;39.31
18784;BME280;9520;50.954;6.968;2023-04-03T01:29:48;102278.53;;;11.88;39.45
18784;BME280;9520;50.954;6.968;2023-04-03T01:30:12;102270.63;;;11.88;39.39
18784;BME280;9520;50.954;6.968;2023-04-03T01:30:41;102268.84;;;11.88;39.36
18784;BME280;9520;50.954;6.968;2023-04-03T01:31:12;102267.09;;;11.89;39.32
18784;BME280;9520;50.954;6.968;2023-04-03T01:31:52;102273.25;;;11.86;39.45
18784;BME280;9520;50.954;6.968;2023-04-03T01:32:18;102267.06;;;11.86;39.91
18784;BME280;9520;50.954;6.968;2023-04-03T01:32:39;102267.09;;;11.89;39.47
18784;BME280;9520;50.954;6.968;2023-04-03T01:33:02;102274.13;;;11.90;39.50
18784;BME280;9520;50.954;6.968;2023-04-03T01:33:24;102271.50;;;11.88;38.99
18784;BME280;9520;50.954;6.968;2023-04-03T01:33:47;102269.69;;;11.84;38.81
18784;BME280;9520;50.954;6.968;2023-04-03T01:34:08;102275.88;;;11.86;39.06
18784;BME280;9520;50.954;6.968;2023-04-03T01:34:30;102270.59;;;11.83;39.02
18784;BME280;9520;50.954;6.968;2023-04-03T01:34:53;102265.28;;;11.79;39.64
18784;BME280;9520;50.954;6.968;2023-04-03T01:35:16;102275.88;;;11.85;39.69
18784;BME280;9520;50.954;6.968;2023-04-03T01:35:38;102269.69;;;11.81;39.71
18784;BME280;9520;50.954;6.968;2023-04-03T01:36:00;102280.25;;;11.84;39.74
18784;BME280;9520;50.954;6.968;2023-04-03T01:36:25;102281.16;;;11.83;39.51
18784;BME280;9520;50.954;6.968;2023-04-03T01:36:49;102275.84;;;11.80;39.44
18784;BME280;9520;50.954;6.968;2023-04-03T01:37:12;102266.06;;;11.72;39.54
18784;BME280;9520;50.954;6.968;2023-04-03T01:37:33;102255.47;;;11.65;39.64
18784;BME280;9520;50.954;6.968;2023-04-03T01:37:58;102275.84;;;11.77;39.78
18784;BME280;9520;50.954;6.968;2023-04-03T01:38:20;102282.00;;;11.79;39.56
18784;BME280;9520;50.954;6.968;2023-04-03T01:38:42;102279.34;;;11.79;39.31
18784;BME280;9520;50.954;6.968;2023-04-03T01:39:06;102277.59;;;11.80;39.48
18784;BME280;9520;50.954;6.968;2023-04-03T01:39:28;102279.38;;;11.78;39.30
18784;BME280;9520;50.954;6.968;2023-04-03T01:39:52;102276.69;;;11.76;39.23
18784;BME280;9520;50.954;6.968;2023-04-03T01:40:14;102284.66;;;11.78;39.27
18784;BME280;9520;50.954;6.968;2023-04-03T01:40:36;102280.25;;;11.78;39.19
18784;BME280;9520;50.954;6.968;2023-04-03T01:40:58;102279.38;;;11.78;39.38
18784;BME280;9520;50.954;6.968;2023-04-03T01:41:20;102279.38;;;11.78;39.26
18784;BME280;9520;50.954;6.968;2023-04-03T01:41:45;102254.56;;;11.65;38.90
18784;BME280;9520;50.954;6.968;2023-04-03T01:42:14;102278.47;;;11.77;39.01
18784;BME280;9520;50.954;6.968;2023-04-03T01:42:39;102284.63;;;11.76;39.21
18784;BME280;9520;50.954;6.968;2023-04-03T01:43:01;102281.03;;;11.69;39.11
18784;BME280;9520;50.954;6.968;2023-04-03T01:43:24;102275.75;;;11.69;38.96
18784;BME280;9520;50.954;6.968;2023-04-03T01:43:46;102286.31;;;11.68;39.10
18784;BME280;9520;50.954;6.968;2023-04-03T01:44:08;102285.44;;;11.70;39.33
18784;BME280;9520;50.954;6.968;2023-04-03T01:44:29;102264.22;;;11.60;39.79
18784;BME280;9520;50.954;6.968;2023-04-03T01:44:52;102284.56;;;11.72;39.51
18784;BME280;9520;50.954;6.968;2023-04-03T01:45:14;102275.75;;;11.71;39.45
18784;BME280;9520;50.954;6.968;2023-04-03T01:45:36;102282.81;;;11.72;39.09
18784;BME280;9520;50.954;6.968;2023-04-03T01:45:58;102275.75;;;11.69;39.63
18784;BME280;9520;50.954;6.968;2023-04-03T01:46:22;102279.28;;;11.72;39.50
18784;BME280;9520;50.954;6.968;2023-04-03T01:46:43;102275.75;;;11.69;39.80
18784;BME280;9520;50.954;6.968;2023-04-03T01:47:07;102281.03;;;11.68;39.96
18784;BME280;9520;50.954;6.968;2023-04-03T01:47:29;102284.56;;;11.67;40.01
18784;BME280;9520;50.954;6.968;2023-04-03T01:47:52;102271.28;;;11.61;40.14
18784;BME280;9520;50.954;6.968;2023-04-03T01:48:14;102276.63;;;11.67;40.14
18784;BME280;9520;50.954;6.968;2023-04-03T01:48:36;102280.16;;;11.67;39.98
18784;BME280;9520;50.954;6.968;2023-04-03T01:48:58;102280.19;;;11.69;39.83
18784;BME280;9520;50.954;6.968;2023-04-03T01:49:20;102280.19;;;11.69;39.85
18784;BME280;9520;50.954;6.968;2023-04-03T01:49:42;102283.69;;;11.68;39.89
18784;BME280;9520;50.954;6.968;2023-04-03T01:50:05;102281.91;;;11.67;39.58
18784;BME280;9520;50.954;6.968;2023-04-03T01:50:28;102281.03;;;11.66;39.74
18784;BME280;9520;50.954;6.968;2023-04-03T01:50:51;102277.50;;;11.67;39.62
18784;BME280;9520;50.954;6.968;2023-04-03T01:51:13;102275.69;;;11.60;39.85
18784;BME280;9520;50.954;6.968;2023-04-03T01:51:35;102271.25;;;11.56;39.98
18784;BME280;9520;50.954;6.968;2023-04-03T01:51:58;102279.19;;;11.59;40.15
18784;BME280;9520;50.954;6.968;2023-04-03T01:52:20;102287.13;;;11.56;40.17
18784;BME280;9520;50.954;6.968;2023-04-03T01:52:42;102278.31;;;11.54;40.42
18784;BME280;9520;50.954;6.968;2023-04-03T01:53:04;102277.41;;;11.55;40.61
18784;BME280;9520;50.954;6.968;2023-04-03T01:53:26;102280.94;;;11.56;40.53
18784;BME280;9520;50.954;6.968;2023-04-03T01:53:48;102277.41;;;11.55;40.52
18784;BME280;9520;50.954;6.968;2023-04-03T01:54:10;102271.25;;;11.53;40.53
18784;BME280;9520;50.954;6.968;2023-04-03T01:54:32;102256.22;;;11.46;40.58
18784;BME280;9520;50.954;6.968;2023-04-03T01:54:54;102270.34;;;11.48;40.47
18784;BME280;9520;50.954;6.968;2023-04-03T01:55:16;102275.66;;;11.53;40.41
18784;BME280;9520;50.954;6.968;2023-04-03T01:55:39;102274.75;;;11.48;40.47
18784;BME280;9520;50.954;6.968;2023-04-03T01:56:02;102280.91;;;11.51;40.24
18784;BME280;9520;50.954;6.968;2023-04-03T01:56:25;102273.88;;;11.49;40.33
18784;BME280;9520;50.954;6.968;2023-04-03T01:56:48;102280.88;;;11.45;40.00
18784;BME280;9520;50.954;6.968;2023-04-03T01:57:11;102286.19;;;11.47;40.05
18784;BME280;9520;50.954;6.968;2023-04-03T01:57:35;102273.81;;;11.46;40.31
18784;BME280;9520;50.954;6.968;2023-04-03T01:57:56;102284.41;;;11.46;40.35
18784;BME280;9520;50.954;6.968;2023-04-03T01:58:18;102283.53;;;11.47;40.44
18784;BME280;9520;50.954;6.968;2023-04-03T01:58:41;102281.75;;;11.43;40.60
18784;BME280;9520;50.954;6.968;2023-04-03T01:59:05;102281.78;;;11.44;40.68
18784;BME280;9520;50.954;6.968;2023-04-03T01:59:27;102286.16;;;11.42;40.97
18784;BME280;9520;50.954;6.968;2023-04-03T01:59:49;102288.78;;;11.42;40.84
18784;BME280;9520;50.954;6.968;2023-04-03T02:00:13;102280.84;;;11.41;40.98
18784;BME280;9520;50.954;6.968;2023-04-03T02:00:37;102290.53;;;11.40;41.05
18784;BME280;9520;50.954;6.968;2023-04-03T02:00:59;102287.88;;;11.40;41.13
18784;BME280;9520;50.954;6.968;2023-04-03T02:01:20;102276.41;;;11.40;40.73
18784;BME280;9520;50.954;6.968;2023-04-03T02:01:42;102283.47;;;11.38;40.86
18784;BME280;9520;50.954;6.968;2023-04-03T02:02:08;102233.06;;;11.10;40.98
18784;BME280;9520;50.954;6.968;2023-04-03T02:02:30;102225.94;;;11.00;40.86
18784;BME280;9520;50.954;6.968;2023-04-03T02:02:52;102281.69;;;11.37;41.10
18784;BME280;9520;50.954;6.968;2023-04-03T02:03:13;102273.72;;;11.31;41.16
18784;BME280;9520;50.954;6.968;2023-04-03T02:03:36;102289.63;;;11.34;41.15
18784;BME280;9520;50.954;6.968;2023-04-03T02:03:58;102288.69;;;11.32;41.07
18784;BME280;9520;50.954;6.968;2023-04-03T02:04:20;102283.41;;;11.32;40.95
18784;BME280;9520;50.954;6.968;2023-04-03T02:04:42;102288.69;;;11.32;40.87
18784;BME280;9520;50.954;6.968;2023-04-03T02:05:06;102286.94;;;11.31;40.93
18784;BME280;9520;50.954;6.968;2023-04-03T02:05:27;102285.19;;;11.30;40.88
18784;BME280;9520;50.954;6.968;2023-04-03T02:05:49;102280.75;;;11.30;40.86
18784;BME280;9520;50.954;6.968;2023-04-03T02:06:11;102287.81;;;11.30;40.97
18784;BME280;9520;50.954;6.968;2023-04-03T02:06:35;102285.19;;;11.30;40.96